Time;durP1;ratioP1;P1;durP2;ratioP2;P2;SDS_P1;SDS_P2;PMS_P1;PMS_P2;Temp;Humidity;BMP_temperature;BMP_pressure;BME280_temperature;BME280_humidity;BME280_pressure;Samples;Min_cycle;Max_cycle;Signal;HPM_P1;HPM_P2
2022/02/20 00:01:58;;;;;;;4.60;1.30;;;;;;;8.69;42.58;97418.41;5031287;28;20259;-70
2022/02/20 00:04:23;;;;;;;8.73;1.90;;;;;;;8.84;42.77;97436.28;5030468;28;20312;-71
2022/02/20 00:06:49;;;;;;;3.70;1.40;;;;;;;8.83;42.64;97434.63;5030933;28;20205;-70
2022/02/20 00:09:14;;;;;;;9.63;1.90;;;;;;;8.74;43.01;97431.84;5030924;28;20232;-70
2022/02/20 00:11:40;;;;;;;7.17;1.60;;;;;;;8.96;42.87;97435.19;5030462;28;20215;-70
2022/02/20 00:14:05;;;;;;;6.07;1.50;;;;;;;8.99;43.50;97445.38;5031206;28;20201;-70
2022/02/20 00:16:30;;;;;;;3.10;1.83;;;;;;;9.07;43.07;97436.84;5030315;28;20287;-70
2022/02/20 00:18:56;;;;;;;6.43;1.47;;;;;;;9.07;43.67;97427.19;5030872;28;20183;-70
2022/02/20 00:21:21;;;;;;;3.33;1.47;;;;;;;8.76;44.42;97450.84;5030605;28;20238;-71
2022/02/20 00:23:47;;;;;;;6.10;1.50;;;;;;;8.76;45.04;97431.72;5030990;28;20224;-71
2022/02/20 00:26:12;;;;;;;2.57;1.27;;;;;;;8.97;44.68;97421.16;5030354;28;20284;-71
2022/02/20 00:28:39;;;;;;;5.40;1.70;;;;;;;8.90;44.58;97428.72;5013078;28;20701;-71
2022/02/20 00:31:05;;;;;;;8.40;1.70;;;;;;;8.99;44.20;97419.22;5030837;28;20214;-70
2022/02/20 00:33:30;;;;;;;7.23;1.73;;;;;;;8.50;46.19;97418.34;5012592;28;20430;-70
2022/02/20 00:35:55;;;;;;;7.87;1.97;;;;;;;8.42;46.33;97418.97;5030296;28;20863;-70
2022/02/20 00:38:21;;;;;;;6.73;1.73;;;;;;;8.19;47.83;97420.97;5033401;28;20235;-70
2022/02/20 00:40:46;;;;;;;7.03;1.50;;;;;;;8.36;47.06;97417.72;5030506;28;20267;-70
2022/02/20 00:43:12;;;;;;;4.70;1.40;;;;;;;8.36;47.27;97433.38;5030722;28;20642;-70
2022/02/20 00:45:38;;;;;;;8.07;1.87;;;;;;;8.29;47.55;97427.06;5012559;28;20248;-69
2022/02/20 00:48:04;;;;;;;7.27;1.60;;;;;;;8.38;47.42;97441.13;5030892;28;20192;-70
2022/02/20 00:50:30;;;;;;;5.53;1.70;;;;;;;8.01;49.15;97421.59;5033145;28;20794;-69
2022/02/20 00:52:56;;;;;;;4.23;1.70;;;;;;;7.76;49.84;97425.44;5034473;28;20192;-69
2022/02/20 00:55:22;;;;;;;4.23;1.50;;;;;;;8.04;49.52;97431.78;5034019;28;20214;-70
2022/02/20 00:57:47;;;;;;;4.47;1.73;;;;;;;8.06;49.66;97431.63;5034451;28;20191;-70
2022/02/20 01:00:14;;;;;;;6.07;1.57;;;;;;;7.83;50.35;97432.63;5034278;28;20190;-71
2022/02/20 01:02:40;;;;;;;6.77;1.57;;;;;;;7.48;50.70;97422.53;5034282;28;20664;-70
2022/02/20 01:05:06;;;;;;;5.57;1.63;;;;;;;7.78;50.54;97434.81;5033870;28;20476;-70
2022/02/20 01:07:32;;;;;;;3.27;1.33;;;;;;;7.88;50.14;97434.00;5034169;28;20477;-70
2022/02/20 01:09:57;;;;;;;11.80;1.53;;;;;;;8.02;50.05;97432.84;5033530;28;20485;-70
2022/02/20 01:12:23;;;;;;;6.83;1.33;;;;;;;8.02;49.60;97443.28;5016349;28;20425;-70
2022/02/20 01:14:48;;;;;;;4.37;1.60;;;;;;;7.95;49.96;97435.97;5033717;28;20235;-70
2022/02/20 01:17:14;;;;;;;7.60;1.57;;;;;;;8.01;49.96;97429.41;5034264;28;20710;-69
2022/02/20 01:19:40;;;;;;;5.10;2.00;;;;;;;7.83;49.74;97434.41;5035336;28;20193;-70
2022/02/20 01:22:05;;;;;;;6.03;1.53;;;;;;;7.86;50.09;97430.72;5019098;28;20546;-71
2022/02/20 01:24:31;;;;;;;3.63;1.30;;;;;;;7.89;50.65;97433.06;5036028;28;20206;-69
2022/02/20 01:26:56;;;;;;;5.63;2.10;;;;;;;8.02;50.59;97431.06;5035878;28;20213;-71
2022/02/20 01:29:22;;;;;;;6.00;1.60;;;;;;;7.67;51.58;97424.44;5036642;28;20631;-70
2022/02/20 01:31:49;;;;;;;7.13;2.10;;;;;;;8.06;50.65;97437.69;5020676;28;20240;-71
2022/02/20 01:34:14;;;;;;;7.00;1.90;;;;;;;8.05;50.47;97438.66;5037909;28;20188;-71
2022/02/20 01:36:40;;;;;;;13.33;1.70;;;;;;;8.21;49.29;97437.31;5036186;28;20518;-71
2022/02/20 01:39:05;;;;;;;7.70;1.43;;;;;;;8.32;49.23;97423.34;5036853;28;20286;-72
2022/02/20 01:41:30;;;;;;;5.23;1.60;;;;;;;8.03;50.07;97421.44;5036797;28;20266;-71
2022/02/20 01:43:56;;;;;;;4.20;1.63;;;;;;;8.12;50.09;97426.72;5018073;28;20182;-71
2022/02/20 01:46:21;;;;;;;9.63;1.80;;;;;;;8.19;49.51;97439.25;5033341;28;20849;-71
2022/02/20 01:48:48;;;;;;;7.63;1.70;;;;;;;8.07;50.07;97452.38;5033597;28;20185;-71
2022/02/20 01:51:14;;;;;;;4.60;1.67;;;;;;;7.99;50.52;97441.75;5033161;28;20195;-71
2022/02/20 01:53:40;;;;;;;7.90;1.57;;;;;;;7.84;50.75;97443.91;5033505;28;20430;-71
2022/02/20 01:56:06;;;;;;;5.93;1.47;;;;;;;7.93;50.40;97442.28;5032885;28;20441;-71
2022/02/20 01:58:31;;;;;;;4.20;1.47;;;;;;;8.00;50.91;97453.84;5032993;28;20423;-70
2022/02/20 02:00:59;;;;;;;4.37;1.50;;;;;;;8.14;50.08;97450.91;5031845;28;20191;-70
2022/02/20 02:03:25;;;;;;;3.10;1.40;;;;;;;8.10;50.34;97452.13;5033004;28;20589;-70
2022/02/20 02:05:50;;;;;;;7.23;1.70;;;;;;;8.18;49.96;97440.22;5032671;28;20468;-71
2022/02/20 02:08:17;;;;;;;9.73;1.60;;;;;;;7.78;50.78;97449.63;5032994;28;20558;-71
2022/02/20 02:10:43;;;;;;;5.60;1.70;;;;;;;8.08;50.31;97454.03;5032152;28;20197;-71
2022/02/20 02:13:09;;;;;;;2.90;1.20;;;;;;;7.81;51.04;97455.41;5014842;28;20439;-71
2022/02/20 02:15:35;;;;;;;6.57;1.20;;;;;;;7.86;51.22;97451.59;5032287;28;20474;-71
2022/02/20 02:18:00;;;;;;;5.30;1.40;;;;;;;7.91;51.28;97450.25;5032795;28;20242;-70
2022/02/20 02:20:26;;;;;;;10.97;1.30;;;;;;;8.21;50.68;97450.38;5015109;28;20567;-71
2022/02/20 02:22:51;;;;;;;4.57;1.30;;;;;;;8.25;50.44;97457.81;5032483;28;20649;-70
2022/02/20 02:25:17;;;;;;;4.00;1.30;;;;;;;8.22;50.75;97445.03;5032144;28;20225;-71
2022/02/20 02:27:42;;;;;;;3.77;1.30;;;;;;;7.80;51.40;97442.50;5014983;28;20187;-71
2022/02/20 02:30:10;;;;;;;3.87;1.53;;;;;;;8.11;50.89;97445.94;5032358;28;20565;-71
2022/02/20 02:32:35;;;;;;;3.83;1.40;;;;;;;8.07;50.79;97444.53;5032725;28;20836;-70
2022/02/20 02:35:01;;;;;;;6.90;1.87;;;;;;;8.17;50.47;97441.16;5035003;28;20484;-71
2022/02/20 02:37:26;;;;;;;4.37;1.50;;;;;;;8.40;50.28;97450.47;5032418;28;20554;-71
2022/02/20 02:39:52;;;;;;;4.67;1.70;;;;;;;8.32;49.96;97442.44;5014564;28;20191;-72
2022/02/20 02:42:18;;;;;;;4.13;1.40;;;;;;;8.50;49.39;97434.84;5032243;28;20200;-72
2022/02/20 02:44:44;;;;;;;2.33;1.27;;;;;;;8.24;50.30;97445.72;5032240;28;20222;-71
2022/02/20 02:47:10;;;;;;;9.20;1.87;;;;;;;8.27;50.42;97444.63;5032007;28;21230;-69
2022/02/20 02:49:37;;;;;;;7.03;1.43;;;;;;;8.31;50.51;97443.41;5014488;28;20434;-71
2022/02/20 02:52:03;;;;;;;3.60;1.27;;;;;;;8.56;50.10;97441.31;5032614;28;20539;-71
2022/02/20 02:54:29;;;;;;;3.83;1.57;;;;;;;8.53;50.27;97441.59;5031944;28;20542;-70
2022/02/20 02:56:54;;;;;;;3.57;1.40;;;;;;;8.35;50.80;97473.53;5031853;28;20830;-70
2022/02/20 02:59:20;;;;;;;3.47;1.37;;;;;;;8.43;50.35;97450.19;5031711;28;20185;-71
2022/02/20 03:01:46;;;;;;;3.53;1.40;;;;;;;8.61;49.99;97452.19;5014182;28;20205;-72
2022/02/20 03:04:12;;;;;;;2.50;1.30;;;;;;;8.59;50.30;97452.34;5031773;28;20181;-70
2022/02/20 03:06:37;;;;;;;6.93;1.60;;;;;;;8.64;49.88;97451.94;5031748;28;20442;-71
2022/02/20 03:09:06;;;;;;;5.30;1.50;;;;;;;8.49;50.26;97455.88;5031964;28;20180;-72
2022/02/20 03:11:32;;;;;;;3.20;1.40;;;;;;;8.36;50.53;97456.88;5030995;28;20587;-70
2022/02/20 03:13:57;;;;;;;3.73;1.10;;;;;;;8.50;50.64;97458.38;5031450;28;20419;-70
2022/02/20 03:16:23;;;;;;;4.07;1.30;;;;;;;8.45;51.54;97463.94;5031186;28;20600;-72
2022/02/20 03:18:48;;;;;;;11.83;1.40;;;;;;;8.54;50.93;97477.22;5031728;28;20195;-71
2022/02/20 03:21:14;;;;;;;5.73;1.10;;;;;;;8.73;50.06;97460.75;5031546;28;20191;-72
2022/02/20 03:23:39;;;;;;;2.27;1.30;;;;;;;8.68;50.60;97476.84;5031732;28;20203;-72
2022/02/20 03:26:05;;;;;;;3.17;1.23;;;;;;;8.53;51.17;97478.16;5031125;28;20254;-71
2022/02/20 03:28:30;;;;;;;3.33;1.10;;;;;;;8.64;50.75;97470.22;5031390;28;20183;-71
2022/02/20 03:30:55;;;;;;;5.77;1.30;;;;;;;8.13;51.92;97472.75;5031625;28;20188;-71
2022/02/20 03:33:21;;;;;;;4.57;1.50;;;;;;;8.49;51.85;97476.75;5031316;28;20191;-70
2022/02/20 03:35:47;;;;;;;2.80;1.17;;;;;;;8.62;51.75;97476.53;5030903;28;20200;-71
2022/02/20 03:38:12;;;;;;;2.30;1.40;;;;;;;8.54;51.48;97474.59;5031116;28;20187;-71
2022/02/20 03:40:38;;;;;;;7.67;1.53;;;;;;;8.76;50.96;97469.16;5030884;28;20565;-71
2022/02/20 03:43:03;;;;;;;5.37;1.27;;;;;;;8.57;51.97;97476.91;5013557;28;20189;-72
2022/02/20 03:45:30;;;;;;;4.20;1.10;;;;;;;8.58;51.77;97474.19;5030529;28;20221;-70
2022/02/20 03:47:55;;;;;;;3.67;1.30;;;;;;;8.74;51.10;97478.91;5031619;28;20194;-72
2022/02/20 03:50:22;;;;;;;2.97;1.00;;;;;;;8.78;50.87;97483.88;5030960;28;20434;-71
2022/02/20 03:52:48;;;;;;;2.50;1.20;;;;;;;8.73;51.39;97485.09;5031095;28;20244;-72
2022/02/20 03:55:14;;;;;;;3.63;0.97;;;;;;;8.80;50.91;97474.91;5030391;28;20936;-72
2022/02/20 03:57:40;;;;;;;2.53;1.23;;;;;;;8.68;51.92;97482.06;5030986;28;20472;-70
2022/02/20 04:00:10;;;;;;;3.43;1.20;;;;;;;8.59;52.70;97481.06;5030961;28;20461;-71
2022/02/20 04:02:39;;;;;;;7.07;1.43;;;;;;;8.67;53.05;97490.84;5023349;28;20214;-71
2022/02/20 04:05:10;;;;;;;4.43;1.33;;;;;;;8.76;53.43;97495.28;5030763;28;20511;-71
2022/02/20 04:07:36;;;;;;;3.43;1.10;;;;;;;8.61;54.24;97494.00;5023208;28;20422;-70
2022/02/20 04:10:03;;;;;;;1.93;1.00;;;;;;;8.62;54.50;97490.41;5012098;28;20445;-71
2022/02/20 04:12:29;;;;;;;2.33;1.07;;;;;;;8.68;54.55;97489.06;5030470;28;20429;-71
2022/02/20 04:14:55;;;;;;;3.50;1.33;;;;;;;8.73;54.07;97495.53;5030498;28;20821;-71
2022/02/20 04:17:20;;;;;;;7.47;1.40;;;;;;;8.36;55.48;97501.28;5030581;28;20438;-70
2022/02/20 04:19:47;;;;;;;3.23;1.00;;;;;;;8.39;55.55;97492.34;5030865;28;20197;-71
2022/02/20 04:22:13;;;;;;;2.03;0.87;;;;;;;8.47;55.81;97513.44;5030570;28;20304;-71
2022/02/20 04:24:39;;;;;;;4.17;1.33;;;;;;;8.59;55.63;97516.81;5024089;28;20466;-70
2022/02/20 04:27:04;;;;;;;3.10;1.00;;;;;;;8.41;55.63;97530.47;5032275;28;20221;-71
2022/02/20 04:29:29;;;;;;;3.23;0.90;;;;;;;8.48;56.47;97519.50;5034001;28;20184;-71
2022/02/20 04:31:55;;;;;;;2.23;1.00;;;;;;;8.64;55.94;97529.47;5037534;28;20180;-72
2022/02/20 04:34:21;;;;;;;2.30;0.80;;;;;;;8.69;55.65;97530.75;5035077;28;20720;-71
2022/02/20 04:36:46;;;;;;;2.80;1.07;;;;;;;8.44;57.13;97539.81;5034112;28;20210;-71
2022/02/20 04:39:11;;;;;;;2.53;1.03;;;;;;;8.54;56.26;97550.34;5035116;28;20184;-71
2022/02/20 04:41:37;;;;;;;1.20;0.93;;;;;;;8.55;56.52;97544.97;5035453;28;20189;-71
2022/02/20 04:44:03;;;;;;;2.07;1.00;;;;;;;8.62;56.55;97547.09;5034407;28;20187;-71
2022/02/20 04:46:31;;;;;;;2.17;0.90;;;;;;;8.54;57.22;97550.34;5034240;28;20677;-71
2022/02/20 04:48:56;;;;;;;2.27;0.77;;;;;;;8.48;57.34;97571.75;5017276;28;20222;-72
2022/02/20 04:51:22;;;;;;;1.37;0.80;;;;;;;8.26;57.76;97571.75;5034904;28;20823;-71
2022/02/20 04:53:47;;;;;;;1.23;0.90;;;;;;;8.22;57.47;97574.75;5034272;28;20193;-72
2022/02/20 04:56:12;;;;;;;5.43;0.93;;;;;;;8.22;58.26;97578.19;5033319;28;20265;-72
2022/02/20 04:58:38;;;;;;;1.20;0.90;;;;;;;8.19;58.60;97565.41;5034325;28;20183;-71
2022/02/20 05:01:03;;;;;;;2.50;0.90;;;;;;;8.12;58.42;97588.56;5034086;28;20307;-72
2022/02/20 05:03:29;;;;;;;1.67;1.00;;;;;;;8.19;58.02;97578.44;5034040;28;20275;-71
2022/02/20 05:05:54;;;;;;;7.00;1.50;;;;;;;8.13;58.61;97578.94;5033490;28;20214;-68
2022/02/20 05:08:20;;;;;;;1.27;0.80;;;;;;;8.26;58.18;97581.38;5033747;28;20195;-71
2022/02/20 05:10:45;;;;;;;2.13;0.90;;;;;;;8.21;58.67;97575.69;5033650;28;20573;-71
2022/02/20 05:13:11;;;;;;;4.00;1.10;;;;;;;8.21;58.99;97583.53;5033985;28;20191;-71
2022/02/20 05:15:36;;;;;;;1.53;0.97;;;;;;;8.33;58.47;97569.44;5033757;28;20214;-69
2022/02/20 05:18:01;;;;;;;4.20;1.00;;;;;;;8.34;58.18;97583.34;5034540;28;20179;-69
2022/02/20 05:20:27;;;;;;;1.93;1.00;;;;;;;8.22;58.99;97577.34;5033167;28;20717;-69
2022/02/20 05:22:52;;;;;;;3.60;1.17;;;;;;;8.41;58.15;97587.94;5033815;28;20234;-69
2022/02/20 05:25:18;;;;;;;6.00;1.10;;;;;;;8.29;58.71;97574.09;5032913;28;20222;-69
2022/02/20 05:27:44;;;;;;;2.50;1.17;;;;;;;8.08;59.51;97584.56;5033669;28;20176;-72
2022/02/20 05:30:13;;;;;;;3.70;1.07;;;;;;;8.37;59.11;97578.69;5033254;28;20711;-70
2022/02/20 05:32:38;;;;;;;1.50;0.80;;;;;;;8.51;58.93;97581.97;5036697;28;20191;-69
2022/02/20 05:35:06;;;;;;;3.20;1.30;;;;;;;8.42;58.76;97579.16;5038489;28;20433;-71
2022/02/20 05:37:40;;;;;;;1.73;1.00;;;;;;;8.26;59.28;97574.34;5032115;28;20179;-70
2022/02/20 05:40:06;;;;;;;1.53;0.80;;;;;;;8.41;59.15;97567.03;5033139;28;20446;-70
2022/02/20 05:42:32;;;;;;;1.33;1.13;;;;;;;8.31;59.25;97579.22;5033229;28;20432;-70
2022/02/20 05:44:57;;;;;;;3.47;0.90;;;;;;;8.37;59.55;97590.94;5033287;28;20462;-71
2022/02/20 05:47:23;;;;;;;2.90;1.27;;;;;;;8.32;59.74;97599.13;5032598;28;20198;-70
2022/02/20 05:49:48;;;;;;;1.87;1.00;;;;;;;8.36;59.68;97589.28;5033211;28;20190;-70
2022/02/20 05:52:14;;;;;;;4.13;1.17;;;;;;;8.45;59.65;97586.69;5015272;28;20191;-71
2022/02/20 05:54:39;;;;;;;2.70;0.93;;;;;;;8.43;59.93;97586.03;5032667;28;20649;-71
2022/02/20 05:57:04;;;;;;;2.33;1.13;;;;;;;8.33;60.26;97581.69;5032508;28;20298;-71
2022/02/20 05:59:30;;;;;;;2.07;1.00;;;;;;;8.25;59.80;97577.13;5033245;28;20208;-71
2022/02/20 06:01:56;;;;;;;1.50;0.80;;;;;;;8.50;59.45;97580.31;5033010;28;20186;-71
2022/02/20 06:04:21;;;;;;;2.60;1.20;;;;;;;8.30;59.81;97575.75;5032566;28;20644;-71
2022/02/20 06:06:46;;;;;;;2.97;1.27;;;;;;;8.41;59.79;97569.66;5032252;28;20746;-71
2022/02/20 06:09:12;;;;;;;2.17;1.20;;;;;;;8.43;59.17;97564.28;5032641;28;20189;-71
2022/02/20 06:11:37;;;;;;;3.10;1.03;;;;;;;8.45;59.60;97565.00;5032860;28;20284;-70
2022/02/20 06:14:03;;;;;;;4.83;1.00;;;;;;;8.37;59.34;97564.81;5032855;28;20218;-70
2022/02/20 06:16:28;;;;;;;7.07;1.17;;;;;;;8.30;59.12;97570.53;5031830;28;20235;-70
2022/02/20 06:18:54;;;;;;;2.50;1.23;;;;;;;8.17;60.04;97562.09;5032639;28;20182;-71
2022/02/20 06:21:19;;;;;;;1.27;1.07;;;;;;;8.35;59.75;97572.75;5032241;28;20189;-71
2022/02/20 06:23:45;;;;;;;1.47;1.10;;;;;;;8.42;59.77;97581.75;5032714;28;20186;-70
2022/02/20 06:26:10;;;;;;;1.67;1.00;;;;;;;8.34;59.03;97581.56;5027880;28;20232;-70
2022/02/20 06:28:36;;;;;;;1.10;0.80;;;;;;;8.35;59.32;97582.41;5032367;28;20190;-71
2022/02/20 06:31:01;;;;;;;1.33;0.93;;;;;;;8.38;59.21;97577.75;5032534;28;20183;-71
2022/02/20 06:33:27;;;;;;;3.47;1.10;;;;;;;8.27;59.46;97577.81;5032149;28;20193;-71
2022/02/20 06:35:52;;;;;;;2.13;0.87;;;;;;;8.30;59.05;97588.00;5035211;28;20741;-71
2022/02/20 06:38:18;;;;;;;2.70;0.90;;;;;;;8.38;58.50;97589.97;5032065;28;20191;-71
2022/02/20 06:40:43;;;;;;;1.43;0.70;;;;;;;8.54;58.05;97592.16;5032378;28;20185;-71
2022/02/20 06:43:09;;;;;;;1.00;0.90;;;;;;;8.49;58.62;97589.09;5030591;28;20681;-71
2022/02/20 06:45:34;;;;;;;2.40;0.87;;;;;;;8.32;58.60;97593.91;5014308;28;20215;-70
2022/02/20 06:48:00;;;;;;;1.97;0.97;;;;;;;8.41;58.44;97598.38;5031834;28;20208;-70
2022/02/20 06:50:25;;;;;;;2.30;1.00;;;;;;;8.40;58.56;97611.56;5032373;28;20610;-71
2022/02/20 06:52:50;;;;;;;3.10;0.80;;;;;;;8.49;57.73;97603.00;5032420;28;20269;-70
2022/02/20 06:55:16;;;;;;;2.20;0.70;;;;;;;8.52;58.06;97602.72;5031897;28;20212;-71
2022/02/20 06:57:42;;;;;;;1.83;0.90;;;;;;;8.45;58.30;97610.22;5032265;28;20289;-70
2022/02/20 07:00:10;;;;;;;1.30;0.87;;;;;;;8.54;57.54;97613.06;5032073;28;20195;-70
2022/02/20 07:02:37;;;;;;;2.07;0.70;;;;;;;8.63;57.40;97607.03;5024423;28;20180;-70
2022/02/20 07:05:04;;;;;;;1.00;0.80;;;;;;;8.64;57.21;97618.31;5031692;28;20460;-71
2022/02/20 07:07:29;;;;;;;1.30;0.90;;;;;;;8.67;56.88;97613.69;5032203;28;20438;-70
2022/02/20 07:09:54;;;;;;;1.47;1.23;;;;;;;8.58;57.00;97630.09;5032034;28;20490;-71
2022/02/20 07:12:20;;;;;;;1.30;0.90;;;;;;;8.59;57.27;97626.53;5032048;28;20284;-70
2022/02/20 07:14:45;;;;;;;1.50;0.83;;;;;;;8.72;57.33;97632.38;5031462;28;20183;-70
2022/02/20 07:17:11;;;;;;;1.30;0.90;;;;;;;8.82;56.18;97635.06;5031577;28;20215;-70
2022/02/20 07:19:36;;;;;;;1.00;0.70;;;;;;;8.84;56.76;97619.22;5035884;28;20195;-71
2022/02/20 07:22:02;;;;;;;1.83;1.00;;;;;;;8.71;56.81;97612.44;5037715;28;20187;-71
2022/02/20 07:24:28;;;;;;;1.17;0.80;;;;;;;8.75;56.73;97619.06;5031752;28;20195;-71
2022/02/20 07:26:54;;;;;;;1.53;1.00;;;;;;;8.70;57.04;97623.03;5031847;28;20195;-71
2022/02/20 07:29:19;;;;;;;3.10;0.97;;;;;;;8.85;56.21;97615.66;5031717;28;20685;-72
2022/02/20 07:31:44;;;;;;;2.20;1.07;;;;;;;8.88;56.63;97625.88;5031944;28;20191;-72
2022/02/20 07:34:10;;;;;;;4.27;1.17;;;;;;;8.98;56.65;97608.41;5032620;28;20203;-71
2022/02/20 07:36:41;;;;;;;2.37;0.90;;;;;;;8.82;56.39;97602.88;5031401;28;20616;-71
2022/02/20 07:39:10;;;;;;;2.00;1.27;;;;;;;8.78;57.01;97593.63;5031631;28;20191;-72
2022/02/20 07:41:36;;;;;;;2.03;1.00;;;;;;;9.04;56.29;97607.91;5031707;28;20510;-71
2022/02/20 07:44:02;;;;;;;2.80;1.10;;;;;;;9.06;56.33;97607.75;5031478;28;20423;-72
2022/02/20 07:46:28;;;;;;;1.10;0.80;;;;;;;9.11;55.84;97612.59;5031180;28;20938;-71
2022/02/20 07:48:57;;;;;;;1.20;0.87;;;;;;;8.82;56.55;97608.09;5031563;28;20529;-72
2022/02/20 07:51:24;;;;;;;1.10;0.80;;;;;;;9.02;56.33;97599.38;5013917;28;20181;-72
2022/02/20 07:53:50;;;;;;;2.50;1.17;;;;;;;9.15;56.07;97596.50;5013766;28;20483;-71
2022/02/20 07:56:16;;;;;;;2.70;1.07;;;;;;;8.99;56.31;97599.63;5030747;28;20934;-70
2022/02/20 07:58:42;;;;;;;2.07;0.90;;;;;;;9.17;55.99;97605.03;5012808;28;20893;-71
2022/02/20 08:01:07;;;;;;;1.93;0.90;;;;;;;9.26;55.58;97598.19;5031248;28;20426;-70
2022/02/20 08:03:33;;;;;;;2.60;1.00;;;;;;;9.25;55.70;97600.94;5023171;28;20187;-69
2022/02/20 08:05:59;;;;;;;3.03;1.10;;;;;;;9.14;56.01;97594.03;5030644;28;20215;-71
2022/02/20 08:08:25;;;;;;;1.00;0.77;;;;;;;9.45;54.84;97597.41;5031053;28;20228;-70
2022/02/20 08:10:51;;;;;;;4.50;0.80;;;;;;;9.61;54.44;97591.63;5030866;28;20943;-71
2022/02/20 08:13:16;;;;;;;1.93;0.90;;;;;;;9.53;54.41;97588.88;5030480;28;20183;-70
2022/02/20 08:15:42;;;;;;;1.63;0.80;;;;;;;9.50;54.80;97583.91;5030240;28;20193;-71
2022/02/20 08:18:07;;;;;;;1.63;0.90;;;;;;;9.63;53.88;97576.63;5030975;28;20694;-71
2022/02/20 08:20:32;;;;;;;1.70;1.10;;;;;;;9.61;54.04;97575.09;5031037;28;20183;-71
2022/02/20 08:22:58;;;;;;;4.73;1.10;;;;;;;9.60;54.05;97569.03;5031094;28;20240;-71
2022/02/20 08:25:24;;;;;;;1.53;0.80;;;;;;;9.81;53.98;97571.50;5030516;28;20213;-70
2022/02/20 08:27:50;;;;;;;5.33;1.00;;;;;;;9.92;53.45;97573.16;5035823;28;20187;-71
2022/02/20 08:30:15;;;;;;;1.30;0.80;;;;;;;10.06;53.46;97578.94;5030616;28;20268;-71
2022/02/20 08:32:41;;;;;;;2.70;1.10;;;;;;;10.03;53.21;97572.19;4996909;28;20189;-70
2022/02/20 08:35:08;;;;;;;2.20;0.90;;;;;;;9.94;53.11;97586.97;5013116;28;20647;-70
2022/02/20 08:37:43;;;;;;;2.03;0.90;;;;;;;9.86;53.17;97592.03;5023106;28;20216;-71
2022/02/20 08:40:10;;;;;;;2.03;0.90;;;;;;;10.04;53.09;97586.94;5030772;28;20461;-70
2022/02/20 08:42:36;;;;;;;2.17;1.13;;;;;;;10.33;52.25;97585.25;5030818;28;20522;-71
2022/02/20 08:45:02;;;;;;;1.70;0.80;;;;;;;10.39;52.08;97589.94;5030457;28;20560;-71
2022/02/20 08:47:28;;;;;;;5.93;1.20;;;;;;;10.39;51.95;97597.78;5030619;28;20202;-71
2022/02/20 08:49:54;;;;;;;2.67;1.00;;;;;;;10.34;52.13;97592.97;5030878;28;20516;-71
2022/02/20 08:52:23;;;;;;;1.87;1.00;;;;;;;10.24;51.99;97585.09;5013595;28;20182;-71
2022/02/20 08:54:49;;;;;;;7.83;1.07;;;;;;;10.60;51.77;97590.56;5031099;28;20429;-71
2022/02/20 08:57:15;;;;;;;4.10;1.10;;;;;;;10.79;51.43;97585.38;5030578;28;20304;-71
2022/02/20 08:59:41;;;;;;;1.20;1.03;;;;;;;10.88;50.91;97582.72;5013301;28;20914;-70
2022/02/20 09:02:07;;;;;;;2.93;0.90;;;;;;;11.04;50.67;97586.53;5030700;28;20426;-71
2022/02/20 09:04:33;;;;;;;0.93;0.80;;;;;;;11.02;50.23;97591.09;5030256;28;20183;-71
2022/02/20 09:06:58;;;;;;;1.30;0.90;;;;;;;11.13;50.05;97587.47;5013033;28;20452;-71
2022/02/20 09:09:24;;;;;;;3.70;1.03;;;;;;;11.15;50.24;97590.75;5030359;28;20646;-71
2022/02/20 09:11:49;;;;;;;1.20;1.00;;;;;;;11.17;49.86;97602.75;5015924;28;20201;-71
2022/02/20 09:14:15;;;;;;;2.60;1.07;;;;;;;11.06;49.91;97585.41;5015969;28;20277;-70
2022/02/20 09:16:41;;;;;;;4.07;1.20;;;;;;;11.04;50.13;97586.53;5034383;28;20659;-70
2022/02/20 09:19:07;;;;;;;1.83;0.90;;;;;;;10.81;50.41;97591.31;5034211;28;20178;-71
2022/02/20 09:21:33;;;;;;;1.53;1.07;;;;;;;11.06;50.05;97588.03;5040788;28;20421;-71
2022/02/20 09:23:59;;;;;;;1.43;0.73;;;;;;;11.06;49.97;97590.66;5016450;28;20203;-69
2022/02/20 09:26:25;;;;;;;2.70;1.10;;;;;;;10.96;50.13;97587.25;5033534;28;20465;-70
2022/02/20 09:28:50;;;;;;;1.57;0.90;;;;;;;10.84;50.35;97602.34;5034098;28;20193;-70
2022/02/20 09:31:16;;;;;;;3.27;0.80;;;;;;;10.70;50.63;97589.72;5034016;28;20185;-70
2022/02/20 09:33:41;;;;;;;2.67;1.60;;;;;;;10.95;50.24;97579.53;5033918;28;20274;-71
2022/02/20 09:36:07;;;;;;;2.17;1.33;;;;;;;11.06;50.20;97576.72;5033699;28;20710;-71
2022/02/20 09:38:36;;;;;;;2.70;1.67;;;;;;;11.09;50.15;97571.16;4992055;28;20185;-70
2022/02/20 09:41:04;;;;;;;1.50;1.20;;;;;;;11.12;49.96;97570.06;5033536;28;20440;-71
2022/02/20 09:43:33;;;;;;;0.90;0.70;;;;;;;11.24;49.90;97568.03;5033400;28;20470;-71
2022/02/20 09:45:59;;;;;;;1.33;0.90;;;;;;;11.33;49.74;97564.56;5032956;28;20469;-72
2022/02/20 09:48:24;;;;;;;1.43;0.63;;;;;;;11.27;49.71;97552.00;5033413;28;20533;-71
2022/02/20 09:50:49;;;;;;;1.30;0.70;;;;;;;11.29;49.60;97553.50;5033612;28;20180;-71
2022/02/20 09:53:15;;;;;;;3.63;1.00;;;;;;;11.48;49.11;97543.88;5033320;28;20667;-70
2022/02/20 09:55:44;;;;;;;2.10;0.70;;;;;;;11.36;49.43;97530.97;5012623;28;20206;-71
2022/02/20 09:58:09;;;;;;;1.13;0.90;;;;;;;11.23;49.62;97533.13;5030298;28;20188;-71
2022/02/20 10:00:35;;;;;;;1.87;0.97;;;;;;;11.39;49.75;97545.56;5033634;28;20441;-71
2022/02/20 10:03:02;;;;;;;1.20;0.63;;;;;;;11.38;49.43;97533.44;5033365;28;20175;-69
2022/02/20 10:05:28;;;;;;;2.23;0.70;;;;;;;11.41;49.03;97537.53;5015470;28;20219;-70
2022/02/20 10:07:55;;;;;;;1.73;0.70;;;;;;;11.28;49.06;97533.50;5032719;28;20830;-70
2022/02/20 10:10:26;;;;;;;1.10;0.80;;;;;;;11.59;49.17;97555.94;5032939;28;20210;-71
2022/02/20 10:12:57;;;;;;;1.73;0.80;;;;;;;11.26;49.65;97532.00;5032436;28;20426;-70
2022/02/20 10:15:39;;;;;;;1.13;0.80;;;;;;;11.49;49.27;97530.56;5029422;28;20521;-71
2022/02/20 10:18:22;;;;;;;2.07;0.97;;;;;;;11.68;49.13;97534.03;5032950;28;20430;-71
2022/02/20 10:20:58;;;;;;;0.97;0.73;;;;;;;11.31;49.49;97537.63;5033054;28;20422;-71
2022/02/20 10:23:23;;;;;;;1.43;0.80;;;;;;;11.69;49.05;97540.94;5032060;28;20421;-71
2022/02/20 10:25:49;;;;;;;1.53;0.70;;;;;;;11.73;49.03;97547.50;5032546;28;20904;-70
2022/02/20 10:28:14;;;;;;;1.10;0.73;;;;;;;11.83;48.82;97545.66;5015112;28;20184;-70
2022/02/20 10:30:40;;;;;;;1.20;0.90;;;;;;;12.03;48.36;97542.06;5033084;28;20643;-70
2022/02/20 10:33:11;;;;;;;1.00;0.70;;;;;;;11.73;49.02;97537.00;5015796;28;20199;-71
2022/02/20 10:35:44;;;;;;;1.00;0.73;;;;;;;11.93;48.27;97547.38;5025149;28;20202;-70
2022/02/20 10:38:18;;;;;;;3.00;0.80;;;;;;;12.00;48.17;97551.03;5027933;28;20524;-70
2022/02/20 10:40:45;;;;;;;2.00;0.90;;;;;;;12.06;47.85;97525.97;5032473;28;20427;-70
2022/02/20 10:43:24;;;;;;;1.50;0.93;;;;;;;12.47;47.24;97543.81;5014518;28;20496;-70
2022/02/20 10:45:50;;;;;;;1.43;0.80;;;;;;;12.36;47.28;97537.00;5032159;28;20462;-71
2022/02/20 10:48:17;;;;;;;1.40;0.97;;;;;;;12.55;46.96;97510.47;5014530;28;20423;-70
2022/02/20 10:50:43;;;;;;;1.30;0.80;;;;;;;12.81;46.53;97529.81;5014980;28;20184;-71
2022/02/20 10:53:14;;;;;;;2.43;0.70;;;;;;;12.91;45.88;97527.88;5014209;28;20445;-70
2022/02/20 10:55:47;;;;;;;1.67;0.70;;;;;;;12.96;45.69;97509.81;5014095;28;20208;-70
2022/02/20 10:58:16;;;;;;;1.00;0.70;;;;;;;13.03;45.32;97523.97;5031769;28;20437;-71
2022/02/20 11:00:56;;;;;;;1.23;0.70;;;;;;;12.87;45.77;97505.50;5032036;28;20426;-70
2022/02/20 11:03:24;;;;;;;1.20;1.00;;;;;;;12.65;45.94;97494.59;5014285;28;20799;-71
2022/02/20 11:05:50;;;;;;;3.00;0.83;;;;;;;12.61;46.06;97493.25;5013772;28;20470;-71
2022/02/20 11:08:18;;;;;;;2.03;0.70;;;;;;;12.65;46.41;97497.22;5031803;28;20440;-71
2022/02/20 11:10:45;;;;;;;2.70;0.70;;;;;;;12.68;45.89;97494.28;5032013;28;20438;-71
2022/02/20 11:13:12;;;;;;;1.00;0.70;;;;;;;12.85;45.84;97489.91;5031706;28;20484;-71
2022/02/20 11:15:39;;;;;;;1.03;0.80;;;;;;;12.58;46.24;97502.28;5031465;28;20457;-70
2022/02/20 11:18:07;;;;;;;4.10;0.70;;;;;;;12.53;45.98;97494.06;5032140;28;20417;-70
2022/02/20 11:20:34;;;;;;;0.90;0.60;;;;;;;12.34;46.58;97487.25;5023900;28;20465;-70
2022/02/20 11:23:01;;;;;;;2.43;0.90;;;;;;;12.41;46.48;97479.53;5031707;28;20426;-70
2022/02/20 11:25:27;;;;;;;2.50;0.70;;;;;;;12.69;45.89;97493.28;5031238;28;20512;-70
2022/02/20 11:27:53;;;;;;;1.00;0.70;;;;;;;12.67;46.15;97502.31;5014319;28;20498;-70
2022/02/20 11:30:19;;;;;;;1.50;0.90;;;;;;;12.62;46.42;97471.22;5002488;28;20214;-71
2022/02/20 11:32:45;;;;;;;0.90;0.60;;;;;;;12.71;46.10;97477.34;5031693;28;20526;-71
2022/02/20 11:35:13;;;;;;;1.47;0.80;;;;;;;12.31;47.00;97461.25;5030832;28;20422;-71